Aviation Digital Data Service (ADDS)

Output produced by METARs form (0910 UTC 24 March 2019)
found at http://www.aviationweather.gov/metar/data/
 
Forecast for: LBSF (SOFIA , BG)
Text: TAF LBSF 240500Z 2406/2506 VRB04KT CAVOK
Forecast period: 0600 to 1000 UTC 24 March 2019
Forecast type: FROM: standard forecast or significant change
Winds: variable direction winds at 5 MPH (4 knots; 2.1 m/s)
Visibility: 6 or more miles 10+ km)
Ceiling: unknown
Clouds: missing
Weather: NSW  (no significant weather)
Text: BECMG 2410/2412 06010KT
Forecast period: 1000 to 1800 UTC 24 March 2019
Forecast type: BECOMING: Conditions expected to become as follows by 1200 UTC 24 March 2019
Winds: from the ENE (60 degrees) at 12 MPH (10 knots; 5.1 m/s)
Visibility: 6 or more miles 10+ km)
Ceiling: unknown
Clouds: missing
Weather: NSW  (no significant weather)
Text: BECMG 2418/2420 VRB04KT
Forecast period: 1800 UTC 24 March 2019 to 0600 UTC 25 March 2019
Forecast type: BECOMING: Conditions expected to become as follows by 2000 UTC 24 March 2019
Winds: variable direction winds at 5 MPH (4 knots; 2.1 m/s)
Visibility: 6 or more miles 10+ km)
Ceiling: unknown
Clouds: missing
Weather: NSW  (no significant weather)
Text: TEMPO 2502/2506 4000 BR
Forecast period: 0200 to 0600 UTC 25 March 2019
Forecast type: TEMPORARY: The following changes expected for less than half the time period
Visibility: 2.49 miles (4.01 km)
Ceiling: unknown
Clouds: missing
Weather: BR  (mist)